sensor_id;sensor_type;location;lat;lon;timestamp;temperature;humidity
37204;DHT22;23098;48.054;10.636;2022-09-09T00:02:09;12.90;99.90
37204;DHT22;23098;48.054;10.636;2022-09-09T00:04:38;13.00;99.90
37204;DHT22;23098;48.054;10.636;2022-09-09T00:07:33;12.90;99.90
37204;DHT22;23098;48.054;10.636;2022-09-09T00:18:25;12.90;99.90
37204;DHT22;23098;48.054;10.636;2022-09-09T00:21:11;12.90;99.90
37204;DHT22;23098;48.054;10.636;2022-09-09T00:23:40;12.90;99.90
37204;DHT22;23098;48.054;10.636;2022-09-09T00:29:04;13.00;99.90
37204;DHT22;23098;48.054;10.636;2022-09-09T00:31:34;13.00;99.90
37204;DHT22;23098;48.054;10.636;2022-09-09T00:36:39;13.00;99.90
37204;DHT22;23098;48.054;10.636;2022-09-09T00:39:09;12.90;99.90
37204;DHT22;23098;48.054;10.636;2022-09-09T00:48:33;13.10;99.90
37204;DHT22;23098;48.054;10.636;2022-09-09T00:51:12;13.10;99.90
37204;DHT22;23098;48.054;10.636;2022-09-09T00:54:09;13.20;99.90
37204;DHT22;23098;48.054;10.636;2022-09-09T00:57:02;13.30;99.90
37204;DHT22;23098;48.054;10.636;2022-09-09T01:00:25;13.20;99.90
37204;DHT22;23098;48.054;10.636;2022-09-09T01:06:29;13.30;99.90
37204;DHT22;23098;48.054;10.636;2022-09-09T01:12:16;13.30;99.90
37204;DHT22;23098;48.054;10.636;2022-09-09T01:15:11;13.30;99.90
37204;DHT22;23098;48.054;10.636;2022-09-09T01:18:05;13.40;99.90
37204;DHT22;23098;48.054;10.636;2022-09-09T01:20:47;13.40;99.90
37204;DHT22;23098;48.054;10.636;2022-09-09T01:26:45;13.40;99.90
37204;DHT22;23098;48.054;10.636;2022-09-09T01:29:15;13.40;99.90
37204;DHT22;23098;48.054;10.636;2022-09-09T01:34:54;13.50;99.90
37204;DHT22;23098;48.054;10.636;2022-09-09T01:37:20;13.50;99.90
37204;DHT22;23098;48.054;10.636;2022-09-09T01:39:46;13.50;99.90
37204;DHT22;23098;48.054;10.636;2022-09-09T01:42:15;13.50;99.90
37204;DHT22;23098;48.054;10.636;2022-09-09T01:44:41;13.50;99.90
37204;DHT22;23098;48.054;10.636;2022-09-09T01:47:08;13.50;99.90
37204;DHT22;23098;48.054;10.636;2022-09-09T01:49:34;13.40;99.90
37204;DHT22;23098;48.054;10.636;2022-09-09T01:52:02;13.40;99.90
37204;DHT22;23098;48.054;10.636;2022-09-09T01:54:31;13.40;99.90
37204;DHT22;23098;48.054;10.636;2022-09-09T01:57:21;13.30;99.90
37204;DHT22;23098;48.054;10.636;2022-09-09T02:00:13;13.30;99.90
37204;DHT22;23098;48.054;10.636;2022-09-09T02:03:16;13.20;99.90
37204;DHT22;23098;48.054;10.636;2022-09-09T02:09:03;13.20;99.90
37204;DHT22;23098;48.054;10.636;2022-09-09T02:11:33;13.10;99.90
37204;DHT22;23098;48.054;10.636;2022-09-09T02:14:04;13.20;99.90
37204;DHT22;23098;48.054;10.636;2022-09-09T02:16:53;13.20;99.90
37204;DHT22;23098;48.054;10.636;2022-09-09T02:19:27;13.10;99.90
37204;DHT22;23098;48.054;10.636;2022-09-09T02:22:00;13.10;99.90
37204;DHT22;23098;48.054;10.636;2022-09-09T02:24:31;13.20;99.90
37204;DHT22;23098;48.054;10.636;2022-09-09T02:29:48;13.10;99.90
37204;DHT22;23098;48.054;10.636;2022-09-09T02:32:19;13.10;99.90
37204;DHT22;23098;48.054;10.636;2022-09-09T02:34:53;13.10;99.90
37204;DHT22;23098;48.054;10.636;2022-09-09T02:37:23;13.10;99.90
37204;DHT22;23098;48.054;10.636;2022-09-09T02:39:52;13.10;99.90
37204;DHT22;23098;48.054;10.636;2022-09-09T02:42:18;13.00;99.90
37204;DHT22;23098;48.054;10.636;2022-09-09T02:44:47;13.00;99.90
37204;DHT22;23098;48.054;10.636;2022-09-09T02:47:35;13.00;99.90
37204;DHT22;23098;48.054;10.636;2022-09-09T02:50:44;13.00;99.90
37204;DHT22;23098;48.054;10.636;2022-09-09T02:53:23;13.00;99.90
37204;DHT22;23098;48.054;10.636;2022-09-09T02:56:07;13.00;99.90
37204;DHT22;23098;48.054;10.636;2022-09-09T02:58:37;13.00;99.90
37204;DHT22;23098;48.054;10.636;2022-09-09T03:01:06;13.00;99.90
37204;DHT22;23098;48.054;10.636;2022-09-09T03:03:47;12.90;99.90
37204;DHT22;23098;48.054;10.636;2022-09-09T03:06:20;12.90;99.90
37204;DHT22;23098;48.054;10.636;2022-09-09T03:08:54;12.90;99.90
37204;DHT22;23098;48.054;10.636;2022-09-09T03:11:36;12.90;99.90
37204;DHT22;23098;48.054;10.636;2022-09-09T03:14:12;12.90;99.90
37204;DHT22;23098;48.054;10.636;2022-09-09T03:16:45;12.80;99.90
37204;DHT22;23098;48.054;10.636;2022-09-09T03:23:19;12.80;99.90
37204;DHT22;23098;48.054;10.636;2022-09-09T03:26:27;12.70;99.90
37204;DHT22;23098;48.054;10.636;2022-09-09T03:29:07;12.60;99.90
37204;DHT22;23098;48.054;10.636;2022-09-09T03:31:35;12.60;99.90
37204;DHT22;23098;48.054;10.636;2022-09-09T03:34:02;12.60;99.90
37204;DHT22;23098;48.054;10.636;2022-09-09T03:36:28;12.60;99.90
37204;DHT22;23098;48.054;10.636;2022-09-09T03:38:55;12.60;99.90
37204;DHT22;23098;48.054;10.636;2022-09-09T03:41:21;12.50;99.90
37204;DHT22;23098;48.054;10.636;2022-09-09T03:43:54;12.50;99.90
37204;DHT22;23098;48.054;10.636;2022-09-09T03:46:29;12.50;99.90
37204;DHT22;23098;48.054;10.636;2022-09-09T03:48:56;12.60;99.90
37204;DHT22;23098;48.054;10.636;2022-09-09T03:51:36;12.50;99.90
37204;DHT22;23098;48.054;10.636;2022-09-09T03:54:17;12.50;99.90
37204;DHT22;23098;48.054;10.636;2022-09-09T03:57:10;12.50;99.90
37204;DHT22;23098;48.054;10.636;2022-09-09T03:59:42;12.50;99.90
37204;DHT22;23098;48.054;10.636;2022-09-09T04:02:10;12.60;99.90
37204;DHT22;23098;48.054;10.636;2022-09-09T04:04:40;12.60;99.90
37204;DHT22;23098;48.054;10.636;2022-09-09T04:07:12;12.60;99.90
37204;DHT22;23098;48.054;10.636;2022-09-09T04:09:40;12.60;99.90
37204;DHT22;23098;48.054;10.636;2022-09-09T04:12:15;12.60;99.90
37204;DHT22;23098;48.054;10.636;2022-09-09T04:15:25;12.70;99.90
37204;DHT22;23098;48.054;10.636;2022-09-09T04:17:56;12.60;99.90
37204;DHT22;23098;48.054;10.636;2022-09-09T04:20:22;12.60;99.90
37204;DHT22;23098;48.054;10.636;2022-09-09T04:22:47;12.60;99.90
37204;DHT22;23098;48.054;10.636;2022-09-09T04:25:13;12.60;99.90
37204;DHT22;23098;48.054;10.636;2022-09-09T04:27:42;12.60;99.90
37204;DHT22;23098;48.054;10.636;2022-09-09T04:30:08;12.60;99.90
37204;DHT22;23098;48.054;10.636;2022-09-09T04:32:37;12.60;99.90
37204;DHT22;23098;48.054;10.636;2022-09-09T04:35:06;12.70;99.90
37204;DHT22;23098;48.054;10.636;2022-09-09T04:37:32;12.70;99.90
37204;DHT22;23098;48.054;10.636;2022-09-09T04:39:58;12.80;99.90
37204;DHT22;23098;48.054;10.636;2022-09-09T04:42:28;12.80;99.90
37204;DHT22;23098;48.054;10.636;2022-09-09T04:44:56;12.80;99.90
37204;DHT22;23098;48.054;10.636;2022-09-09T04:47:22;12.80;99.90
37204;DHT22;23098;48.054;10.636;2022-09-09T04:49:49;13.00;99.90
37204;DHT22;23098;48.054;10.636;2022-09-09T04:52:15;13.00;99.90
37204;DHT22;23098;48.054;10.636;2022-09-09T04:54:42;13.10;99.90
37204;DHT22;23098;48.054;10.636;2022-09-09T04:57:27;13.10;99.90
37204;DHT22;23098;48.054;10.636;2022-09-09T04:59:55;13.20;99.90
37204;DHT22;23098;48.054;10.636;2022-09-09T05:02:51;13.20;99.90
37204;DHT22;23098;48.054;10.636;2022-09-09T05:05:37;13.20;99.90
37204;DHT22;23098;48.054;10.636;2022-09-09T05:08:45;13.30;99.90
37204;DHT22;23098;48.054;10.636;2022-09-09T05:11:28;13.40;99.90
37204;DHT22;23098;48.054;10.636;2022-09-09T05:13:55;13.40;99.90
37204;DHT22;23098;48.054;10.636;2022-09-09T05:16:22;13.40;99.90
37204;DHT22;23098;48.054;10.636;2022-09-09T05:18:52;13.50;99.90
37204;DHT22;23098;48.054;10.636;2022-09-09T05:21:21;13.50;99.90
37204;DHT22;23098;48.054;10.636;2022-09-09T05:23:52;13.50;99.90
37204;DHT22;23098;48.054;10.636;2022-09-09T05:26:28;13.60;99.90
37204;DHT22;23098;48.054;10.636;2022-09-09T05:32:04;13.60;99.90
37204;DHT22;23098;48.054;10.636;2022-09-09T05:34:29;13.60;99.90
37204;DHT22;23098;48.054;10.636;2022-09-09T05:36:58;13.70;99.90
37204;DHT22;23098;48.054;10.636;2022-09-09T05:42:01;13.80;99.90
37204;DHT22;23098;48.054;10.636;2022-09-09T05:44:48;13.90;99.90
37204;DHT22;23098;48.054;10.636;2022-09-09T05:47:37;13.90;99.90
37204;DHT22;23098;48.054;10.636;2022-09-09T05:52:45;14.00;99.90
37204;DHT22;23098;48.054;10.636;2022-09-09T05:57:49;14.10;99.90
37204;DHT22;23098;48.054;10.636;2022-09-09T06:00:17;14.20;99.90
37204;DHT22;23098;48.054;10.636;2022-09-09T06:02:43;14.30;99.90
37204;DHT22;23098;48.054;10.636;2022-09-09T06:05:09;14.40;99.90
37204;DHT22;23098;48.054;10.636;2022-09-09T06:07:36;14.40;99.90
37204;DHT22;23098;48.054;10.636;2022-09-09T06:10:02;14.50;99.90
37204;DHT22;23098;48.054;10.636;2022-09-09T06:12:28;14.50;99.90
37204;DHT22;23098;48.054;10.636;2022-09-09T06:14:54;14.50;99.90
37204;DHT22;23098;48.054;10.636;2022-09-09T06:17:19;14.50;99.90
37204;DHT22;23098;48.054;10.636;2022-09-09T06:19:45;14.50;99.90
37204;DHT22;23098;48.054;10.636;2022-09-09T06:22:11;14.50;99.90
37204;DHT22;23098;48.054;10.636;2022-09-09T06:24:42;14.60;99.90
37204;DHT22;23098;48.054;10.636;2022-09-09T06:27:07;14.60;99.90
37204;DHT22;23098;48.054;10.636;2022-09-09T06:29:33;14.70;99.90
37204;DHT22;23098;48.054;10.636;2022-09-09T06:31:58;14.70;99.90
37204;DHT22;23098;48.054;10.636;2022-09-09T06:34:24;14.80;99.90
37204;DHT22;23098;48.054;10.636;2022-09-09T06:36:50;14.80;99.90
37204;DHT22;23098;48.054;10.636;2022-09-09T06:39:17;14.90;99.90
37204;DHT22;23098;48.054;10.636;2022-09-09T06:41:43;14.90;99.90
37204;DHT22;23098;48.054;10.636;2022-09-09T06:44:08;15.00;99.90
37204;DHT22;23098;48.054;10.636;2022-09-09T06:46:36;15.00;99.90
37204;DHT22;23098;48.054;10.636;2022-09-09T06:49:02;15.10;99.90
37204;DHT22;23098;48.054;10.636;2022-09-09T07:38:10;16.10;99.90
37204;DHT22;23098;48.054;10.636;2022-09-09T07:56:09;16.20;99.90
37204;DHT22;23098;48.054;10.636;2022-09-09T08:01:19;16.30;99.90
37204;DHT22;23098;48.054;10.636;2022-09-09T08:03:46;16.40;99.90
37204;DHT22;23098;48.054;10.636;2022-09-09T08:08:53;16.50;99.90
37204;DHT22;23098;48.054;10.636;2022-09-09T08:11:20;16.50;99.90
37204;DHT22;23098;48.054;10.636;2022-09-09T08:13:50;16.60;99.90
37204;DHT22;23098;48.054;10.636;2022-09-09T08:16:27;16.60;99.90
37204;DHT22;23098;48.054;10.636;2022-09-09T08:19:03;16.60;99.90
37204;DHT22;23098;48.054;10.636;2022-09-09T08:21:44;16.70;99.90
37204;DHT22;23098;48.054;10.636;2022-09-09T08:24:14;16.80;99.90
37204;DHT22;23098;48.054;10.636;2022-09-09T08:40:01;17.00;99.90
37204;DHT22;23098;48.054;10.636;2022-09-09T08:42:38;16.80;99.90
37204;DHT22;23098;48.054;10.636;2022-09-09T08:45:31;16.80;99.90
37204;DHT22;23098;48.054;10.636;2022-09-09T09:03:47;16.70;99.90
37204;DHT22;23098;48.054;10.636;2022-09-09T09:07:08;16.80;99.90
37204;DHT22;23098;48.054;10.636;2022-09-09T09:12:32;16.70;99.90
37204;DHT22;23098;48.054;10.636;2022-09-09T09:15:01;16.60;99.90
37204;DHT22;23098;48.054;10.636;2022-09-09T09:17:28;16.60;99.90
37204;DHT22;23098;48.054;10.636;2022-09-09T09:22:52;16.70;99.90
37204;DHT22;23098;48.054;10.636;2022-09-09T09:25:23;16.70;99.90
37204;DHT22;23098;48.054;10.636;2022-09-09T09:28:00;16.70;99.90
37204;DHT22;23098;48.054;10.636;2022-09-09T09:30:39;16.70;99.90
37204;DHT22;23098;48.054;10.636;2022-09-09T09:35:43;16.80;99.90
37204;DHT22;23098;48.054;10.636;2022-09-09T09:38:24;16.90;99.90
37204;DHT22;23098;48.054;10.636;2022-09-09T09:40:55;16.80;99.90
37204;DHT22;23098;48.054;10.636;2022-09-09T09:43:31;16.90;99.90
37204;DHT22;23098;48.054;10.636;2022-09-09T09:48:38;17.00;99.90
37204;DHT22;23098;48.054;10.636;2022-09-09T09:51:09;17.10;99.90
37204;DHT22;23098;48.054;10.636;2022-09-09T09:53:38;17.10;99.90
37204;DHT22;23098;48.054;10.636;2022-09-09T09:56:06;17.10;99.90
37204;DHT22;23098;48.054;10.636;2022-09-09T09:58:51;17.00;99.90
37204;DHT22;23098;48.054;10.636;2022-09-09T10:01:28;16.90;99.90
37204;DHT22;23098;48.054;10.636;2022-09-09T10:03:57;16.90;99.90
37204;DHT22;23098;48.054;10.636;2022-09-09T10:06:36;16.90;99.90
37204;DHT22;23098;48.054;10.636;2022-09-09T10:22:47;16.50;99.90
37204;DHT22;23098;48.054;10.636;2022-09-09T10:25:53;16.50;99.90
37204;DHT22;23098;48.054;10.636;2022-09-09T10:36:33;16.80;99.90
37204;DHT22;23098;48.054;10.636;2022-09-09T10:39:35;16.90;99.90
37204;DHT22;23098;48.054;10.636;2022-09-09T10:42:06;17.10;99.90
37204;DHT22;23098;48.054;10.636;2022-09-09T10:50:40;17.50;99.90
37204;DHT22;23098;48.054;10.636;2022-09-09T10:53:52;17.80;99.90
37204;DHT22;23098;48.054;10.636;2022-09-09T10:56:21;18.20;99.90
37204;DHT22;23098;48.054;10.636;2022-09-09T10:59:00;18.20;99.90
37204;DHT22;23098;48.054;10.636;2022-09-09T11:01:36;18.30;99.90
37204;DHT22;23098;48.054;10.636;2022-09-09T11:07:08;18.20;99.90
37204;DHT22;23098;48.054;10.636;2022-09-09T11:09:46;18.10;99.90
37204;DHT22;23098;48.054;10.636;2022-09-09T11:12:19;18.00;99.90
37204;DHT22;23098;48.054;10.636;2022-09-09T11:14:50;18.10;99.90
37204;DHT22;23098;48.054;10.636;2022-09-09T11:17:26;18.00;99.90
37204;DHT22;23098;48.054;10.636;2022-09-09T11:19:54;18.20;99.90
37204;DHT22;23098;48.054;10.636;2022-09-09T11:22:42;18.10;99.90
37204;DHT22;23098;48.054;10.636;2022-09-09T11:28:06;18.50;99.90
37204;DHT22;23098;48.054;10.636;2022-09-09T11:33:45;18.90;99.90
37204;DHT22;23098;48.054;10.636;2022-09-09T11:36:24;19.00;99.90
37204;DHT22;23098;48.054;10.636;2022-09-09T11:41:38;19.20;99.90
37204;DHT22;23098;48.054;10.636;2022-09-09T11:44:36;19.10;99.90
37204;DHT22;23098;48.054;10.636;2022-09-09T11:47:30;19.00;99.90
37204;DHT22;23098;48.054;10.636;2022-09-09T11:52:45;18.90;99.90
37204;DHT22;23098;48.054;10.636;2022-09-09T11:58:03;18.80;99.90
37204;DHT22;23098;48.054;10.636;2022-09-09T12:03:06;18.60;99.90
37204;DHT22;23098;48.054;10.636;2022-09-09T12:05:51;18.80;99.90
37204;DHT22;23098;48.054;10.636;2022-09-09T12:08:27;18.80;99.90
37204;DHT22;23098;48.054;10.636;2022-09-09T12:10:56;18.70;99.90
37204;DHT22;23098;48.054;10.636;2022-09-09T12:13:24;19.00;99.90
37204;DHT22;23098;48.054;10.636;2022-09-09T12:15:58;18.90;99.90
37204;DHT22;23098;48.054;10.636;2022-09-09T12:18:39;18.70;99.90
37204;DHT22;23098;48.054;10.636;2022-09-09T12:21:21;18.70;99.90
37204;DHT22;23098;48.054;10.636;2022-09-09T12:23:57;18.80;99.90
37204;DHT22;23098;48.054;10.636;2022-09-09T12:26:32;18.90;99.90
37204;DHT22;23098;48.054;10.636;2022-09-09T12:34:41;19.80;99.90
37204;DHT22;23098;48.054;10.636;2022-09-09T12:40:22;20.90;99.90
37204;DHT22;23098;48.054;10.636;2022-09-09T12:42:48;20.60;99.90
37204;DHT22;23098;48.054;10.636;2022-09-09T12:45:20;20.70;99.90
37204;DHT22;23098;48.054;10.636;2022-09-09T12:50:23;20.30;99.90
37204;DHT22;23098;48.054;10.636;2022-09-09T12:53:01;20.00;99.90
37204;DHT22;23098;48.054;10.636;2022-09-09T12:55:31;20.10;99.90
37204;DHT22;23098;48.054;10.636;2022-09-09T12:58:00;20.20;99.90
37204;DHT22;23098;48.054;10.636;2022-09-09T13:00:26;20.30;99.90
37204;DHT22;23098;48.054;10.636;2022-09-09T13:02:54;20.40;99.90
37204;DHT22;23098;48.054;10.636;2022-09-09T13:05:26;20.60;99.90
37204;DHT22;23098;48.054;10.636;2022-09-09T13:08:04;20.40;99.90
37204;DHT22;23098;48.054;10.636;2022-09-09T13:10:37;19.90;99.90
37204;DHT22;23098;48.054;10.636;2022-09-09T13:13:15;19.70;99.90
37204;DHT22;23098;48.054;10.636;2022-09-09T13:15:50;19.90;99.90
37204;DHT22;23098;48.054;10.636;2022-09-09T13:18:23;20.00;99.90
37204;DHT22;23098;48.054;10.636;2022-09-09T13:20:50;20.10;99.90
37204;DHT22;23098;48.054;10.636;2022-09-09T13:23:18;20.10;99.90
37204;DHT22;23098;48.054;10.636;2022-09-09T13:26:00;20.80;99.90
37204;DHT22;23098;48.054;10.636;2022-09-09T13:28:29;20.50;99.90
37204;DHT22;23098;48.054;10.636;2022-09-09T13:31:03;20.00;99.90
37204;DHT22;23098;48.054;10.636;2022-09-09T13:33:37;19.90;99.90
37204;DHT22;23098;48.054;10.636;2022-09-09T13:36:08;19.70;99.90
37204;DHT22;23098;48.054;10.636;2022-09-09T13:38:38;19.60;99.90
37204;DHT22;23098;48.054;10.636;2022-09-09T13:41:06;19.40;99.90
37204;DHT22;23098;48.054;10.636;2022-09-09T13:43:38;19.30;99.90
37204;DHT22;23098;48.054;10.636;2022-09-09T13:49:01;19.70;99.90
37204;DHT22;23098;48.054;10.636;2022-09-09T13:51:34;19.70;99.90
37204;DHT22;23098;48.054;10.636;2022-09-09T13:54:04;19.60;99.90
37204;DHT22;23098;48.054;10.636;2022-09-09T13:56:33;19.80;99.90
37204;DHT22;23098;48.054;10.636;2022-09-09T13:58:59;19.90;99.80
37204;DHT22;23098;48.054;10.636;2022-09-09T14:01:31;20.20;99.90
37204;DHT22;23098;48.054;10.636;2022-09-09T14:33:13;21.30;99.90
37204;DHT22;23098;48.054;10.636;2022-09-09T14:35:40;21.30;99.90
37204;DHT22;23098;48.054;10.636;2022-09-09T14:38:15;21.30;99.90
37204;DHT22;23098;48.054;10.636;2022-09-09T14:40:53;21.40;99.90
37204;DHT22;23098;48.054;10.636;2022-09-09T14:43:20;21.40;99.90
37204;DHT22;23098;48.054;10.636;2022-09-09T14:45:47;21.30;99.90
37204;DHT22;23098;48.054;10.636;2022-09-09T14:48:14;21.60;99.90
37204;DHT22;23098;48.054;10.636;2022-09-09T14:50:40;21.90;99.90
37204;DHT22;23098;48.054;10.636;2022-09-09T14:53:09;21.90;99.40
37204;DHT22;23098;48.054;10.636;2022-09-09T14:55:48;21.30;99.60
37204;DHT22;23098;48.054;10.636;2022-09-09T14:58:14;21.30;99.90
37204;DHT22;23098;48.054;10.636;2022-09-09T15:00:42;21.00;99.90
37204;DHT22;23098;48.054;10.636;2022-09-09T15:03:08;21.00;99.80
37204;DHT22;23098;48.054;10.636;2022-09-09T15:05:37;20.80;99.90
37204;DHT22;23098;48.054;10.636;2022-09-09T15:08:02;21.30;99.90
37204;DHT22;23098;48.054;10.636;2022-09-09T15:10:28;21.10;99.90
37204;DHT22;23098;48.054;10.636;2022-09-09T15:13:05;20.90;99.90
37204;DHT22;23098;48.054;10.636;2022-09-09T15:15:31;20.80;99.90
37204;DHT22;23098;48.054;10.636;2022-09-09T15:18:06;20.40;99.90
37204;DHT22;23098;48.054;10.636;2022-09-09T15:20:31;20.40;99.90
37204;DHT22;23098;48.054;10.636;2022-09-09T15:22:57;20.80;99.90
37204;DHT22;23098;48.054;10.636;2022-09-09T15:25:23;21.00;99.90
37204;DHT22;23098;48.054;10.636;2022-09-09T15:27:50;20.90;99.90
37204;DHT22;23098;48.054;10.636;2022-09-09T15:30:16;21.00;99.90
37204;DHT22;23098;48.054;10.636;2022-09-09T15:32:42;21.30;98.70
37204;DHT22;23098;48.054;10.636;2022-09-09T15:35:08;21.10;99.10
37204;DHT22;23098;48.054;10.636;2022-09-09T15:37:34;20.90;98.80
37204;DHT22;23098;48.054;10.636;2022-09-09T15:39:59;20.90;99.00
37204;DHT22;23098;48.054;10.636;2022-09-09T15:42:26;21.10;99.40
37204;DHT22;23098;48.054;10.636;2022-09-09T15:44:55;21.10;98.80
37204;DHT22;23098;48.054;10.636;2022-09-09T15:47:20;21.30;98.90
37204;DHT22;23098;48.054;10.636;2022-09-09T15:49:46;21.60;98.80
37204;DHT22;23098;48.054;10.636;2022-09-09T15:52:12;21.80;98.80
37204;DHT22;23098;48.054;10.636;2022-09-09T15:54:38;21.50;98.50
37204;DHT22;23098;48.054;10.636;2022-09-09T15:57:05;21.30;98.80
37204;DHT22;23098;48.054;10.636;2022-09-09T15:59:33;21.30;99.50
37204;DHT22;23098;48.054;10.636;2022-09-09T16:01:59;20.90;98.40
37204;DHT22;23098;48.054;10.636;2022-09-09T16:04:26;20.60;98.60
37204;DHT22;23098;48.054;10.636;2022-09-09T16:06:56;20.50;99.10
37204;DHT22;23098;48.054;10.636;2022-09-09T16:09:27;20.50;98.50
37204;DHT22;23098;48.054;10.636;2022-09-09T16:11:57;20.40;99.00
37204;DHT22;23098;48.054;10.636;2022-09-09T16:14:23;20.30;99.00
37204;DHT22;23098;48.054;10.636;2022-09-09T16:16:50;20.20;98.90
37204;DHT22;23098;48.054;10.636;2022-09-09T16:19:19;20.10;99.50
37204;DHT22;23098;48.054;10.636;2022-09-09T16:21:47;19.90;99.40
37204;DHT22;23098;48.054;10.636;2022-09-09T16:24:20;19.80;99.20
37204;DHT22;23098;48.054;10.636;2022-09-09T16:26:50;19.80;99.40
37204;DHT22;23098;48.054;10.636;2022-09-09T16:29:18;19.80;99.60
37204;DHT22;23098;48.054;10.636;2022-09-09T16:31:45;19.60;99.40
37204;DHT22;23098;48.054;10.636;2022-09-09T16:34:11;19.40;99.70
37204;DHT22;23098;48.054;10.636;2022-09-09T16:36:38;19.30;99.90
37204;DHT22;23098;48.054;10.636;2022-09-09T16:39:17;19.40;99.90
37204;DHT22;23098;48.054;10.636;2022-09-09T16:41:44;19.40;99.90
37204;DHT22;23098;48.054;10.636;2022-09-09T16:44:11;19.40;99.90
37204;DHT22;23098;48.054;10.636;2022-09-09T16:46:45;19.40;99.90
37204;DHT22;23098;48.054;10.636;2022-09-09T16:49:17;19.30;99.90
37204;DHT22;23098;48.054;10.636;2022-09-09T16:51:46;19.20;99.90
37204;DHT22;23098;48.054;10.636;2022-09-09T17:04:57;18.80;99.90
37204;DHT22;23098;48.054;10.636;2022-09-09T17:07:27;18.60;99.90
37204;DHT22;23098;48.054;10.636;2022-09-09T17:09:53;18.30;99.90
37204;DHT22;23098;48.054;10.636;2022-09-09T17:12:19;18.20;99.90
37204;DHT22;23098;48.054;10.636;2022-09-09T17:14:46;18.10;99.90
37204;DHT22;23098;48.054;10.636;2022-09-09T17:17:12;18.00;99.90
37204;DHT22;23098;48.054;10.636;2022-09-09T17:19:38;17.90;99.90
37204;DHT22;23098;48.054;10.636;2022-09-09T17:22:03;17.80;99.90
37204;DHT22;23098;48.054;10.636;2022-09-09T17:24:33;17.70;99.90
37204;DHT22;23098;48.054;10.636;2022-09-09T17:26:59;17.60;99.90
37204;DHT22;23098;48.054;10.636;2022-09-09T17:29:29;17.40;99.90
37204;DHT22;23098;48.054;10.636;2022-09-09T17:31:57;17.30;99.90
37204;DHT22;23098;48.054;10.636;2022-09-09T17:34:25;17.30;99.90
37204;DHT22;23098;48.054;10.636;2022-09-09T17:36:52;17.20;99.90
37204;DHT22;23098;48.054;10.636;2022-09-09T17:39:19;17.20;99.90
37204;DHT22;23098;48.054;10.636;2022-09-09T17:41:44;17.10;99.90
37204;DHT22;23098;48.054;10.636;2022-09-09T17:44:10;17.10;99.90
37204;DHT22;23098;48.054;10.636;2022-09-09T17:46:42;17.00;99.90
37204;DHT22;23098;48.054;10.636;2022-09-09T17:49:13;16.80;99.90
37204;DHT22;23098;48.054;10.636;2022-09-09T17:51:40;16.80;99.90
37204;DHT22;23098;48.054;10.636;2022-09-09T17:54:10;16.70;99.90
37204;DHT22;23098;48.054;10.636;2022-09-09T17:56:38;16.70;99.90
37204;DHT22;23098;48.054;10.636;2022-09-09T17:59:12;16.70;99.90
37204;DHT22;23098;48.054;10.636;2022-09-09T18:01:43;16.70;99.90
37204;DHT22;23098;48.054;10.636;2022-09-09T18:04:15;16.60;99.90
37204;DHT22;23098;48.054;10.636;2022-09-09T18:06:52;16.60;99.90
37204;DHT22;23098;48.054;10.636;2022-09-09T18:09:24;16.50;99.90
37204;DHT22;23098;48.054;10.636;2022-09-09T18:11:53;16.40;99.90
37204;DHT22;23098;48.054;10.636;2022-09-09T18:14:23;16.40;99.90
37204;DHT22;23098;48.054;10.636;2022-09-09T18:16:50;16.30;99.90
37204;DHT22;23098;48.054;10.636;2022-09-09T18:19:19;16.20;99.90
37204;DHT22;23098;48.054;10.636;2022-09-09T18:21:46;16.10;99.90
37204;DHT22;23098;48.054;10.636;2022-09-09T18:24:14;15.90;99.90
37204;DHT22;23098;48.054;10.636;2022-09-09T18:26:44;15.80;99.90
37204;DHT22;23098;48.054;10.636;2022-09-09T18:29:19;15.70;99.90
37204;DHT22;23098;48.054;10.636;2022-09-09T18:31:50;15.70;99.90
37204;DHT22;23098;48.054;10.636;2022-09-09T18:34:55;15.60;99.90
37204;DHT22;23098;48.054;10.636;2022-09-09T18:37:33;15.50;99.90
37204;DHT22;23098;48.054;10.636;2022-09-09T18:40:05;15.40;99.90
37204;DHT22;23098;48.054;10.636;2022-09-09T18:42:40;15.20;99.90
37204;DHT22;23098;48.054;10.636;2022-09-09T18:45:37;15.20;99.90
37204;DHT22;23098;48.054;10.636;2022-09-09T18:48:06;15.10;99.90
37204;DHT22;23098;48.054;10.636;2022-09-09T18:50:34;15.10;99.90
37204;DHT22;23098;48.054;10.636;2022-09-09T18:53:00;15.00;99.90
37204;DHT22;23098;48.054;10.636;2022-09-09T18:58:07;14.80;99.90
37204;DHT22;23098;48.054;10.636;2022-09-09T19:00:40;14.70;99.90
37204;DHT22;23098;48.054;10.636;2022-09-09T19:03:11;14.70;99.90
37204;DHT22;23098;48.054;10.636;2022-09-09T19:06:15;14.60;99.90
37204;DHT22;23098;48.054;10.636;2022-09-09T19:08:45;14.50;99.90
37204;DHT22;23098;48.054;10.636;2022-09-09T19:11:20;14.50;99.90
37204;DHT22;23098;48.054;10.636;2022-09-09T19:13:57;14.40;99.90
37204;DHT22;23098;48.054;10.636;2022-09-09T19:16:28;14.40;99.90
37204;DHT22;23098;48.054;10.636;2022-09-09T19:19:07;14.40;99.90
37204;DHT22;23098;48.054;10.636;2022-09-09T19:21:44;14.30;99.90
37204;DHT22;23098;48.054;10.636;2022-09-09T19:24:19;14.30;99.90
37204;DHT22;23098;48.054;10.636;2022-09-09T19:26:50;14.30;99.90
37204;DHT22;23098;48.054;10.636;2022-09-09T19:29:23;14.30;99.90
37204;DHT22;23098;48.054;10.636;2022-09-09T19:31:53;14.20;99.90
37204;DHT22;23098;48.054;10.636;2022-09-09T19:34:35;14.10;99.90
37204;DHT22;23098;48.054;10.636;2022-09-09T19:37:24;14.10;99.90
37204;DHT22;23098;48.054;10.636;2022-09-09T19:39:56;14.10;99.90
37204;DHT22;23098;48.054;10.636;2022-09-09T19:42:26;14.00;99.90
37204;DHT22;23098;48.054;10.636;2022-09-09T19:44:57;14.00;99.90
37204;DHT22;23098;48.054;10.636;2022-09-09T19:47:24;14.10;99.90
37204;DHT22;23098;48.054;10.636;2022-09-09T19:49:54;14.10;99.90
37204;DHT22;23098;48.054;10.636;2022-09-09T19:52:21;14.10;99.90
37204;DHT22;23098;48.054;10.636;2022-09-09T19:57:39;14.20;99.90
37204;DHT22;23098;48.054;10.636;2022-09-09T20:00:08;14.20;99.90
37204;DHT22;23098;48.054;10.636;2022-09-09T20:02:38;14.20;99.90
37204;DHT22;23098;48.054;10.636;2022-09-09T20:05:11;14.20;99.90
37204;DHT22;23098;48.054;10.636;2022-09-09T20:07:51;14.20;99.90
37204;DHT22;23098;48.054;10.636;2022-09-09T20:10:22;14.20;99.90
37204;DHT22;23098;48.054;10.636;2022-09-09T20:13:07;14.20;99.90
37204;DHT22;23098;48.054;10.636;2022-09-09T20:15:34;14.20;99.90
37204;DHT22;23098;48.054;10.636;2022-09-09T20:18:01;14.20;99.90
37204;DHT22;23098;48.054;10.636;2022-09-09T20:20:29;14.20;99.90